sensor_id;sensor_type;location;lat;lon;timestamp;temperature;humidity
69715;HTU21D;56981;53.532;49.398;2024-03-02T00:01:15;-6.00;82.11
69715;HTU21D;56981;53.532;49.398;2024-03-02T00:03:42;-6.04;82.27
69715;HTU21D;56981;53.532;49.398;2024-03-02T00:06:09;-6.09;82.46
69715;HTU21D;56981;53.532;49.398;2024-03-02T00:08:35;-6.14;82.53
69715;HTU21D;56981;53.532;49.398;2024-03-02T00:11:02;-6.17;82.69
69715;HTU21D;56981;53.532;49.398;2024-03-02T00:13:31;-6.22;83.20
69715;HTU21D;56981;53.532;49.398;2024-03-02T00:15:58;-6.20;83.06
69715;HTU21D;56981;53.532;49.398;2024-03-02T00:18:30;-6.18;83.00
69715;HTU21D;56981;53.532;49.398;2024-03-02T00:20:57;-6.14;82.78
69715;HTU21D;56981;53.532;49.398;2024-03-02T00:23:24;-6.17;83.05
69715;HTU21D;56981;53.532;49.398;2024-03-02T00:25:52;-6.15;82.97
69715;HTU21D;56981;53.532;49.398;2024-03-02T00:28:24;-6.16;82.84
69715;HTU21D;56981;53.532;49.398;2024-03-02T00:33:41;-6.18;83.10
69715;HTU21D;56981;53.532;49.398;2024-03-02T00:36:11;-6.23;83.25
69715;HTU21D;56981;53.532;49.398;2024-03-02T00:38:48;-6.27;83.43
69715;HTU21D;56981;53.532;49.398;2024-03-02T00:44:05;-6.26;83.49
69715;HTU21D;56981;53.532;49.398;2024-03-02T00:46:36;-6.23;83.44
69715;HTU21D;56981;53.532;49.398;2024-03-02T00:49:25;-6.17;83.36
69715;HTU21D;56981;53.532;49.398;2024-03-02T00:51:53;-6.13;83.31
69715;HTU21D;56981;53.532;49.398;2024-03-02T00:54:21;-6.12;83.03
69715;HTU21D;56981;53.532;49.398;2024-03-02T00:56:48;-6.13;83.07
69715;HTU21D;56981;53.532;49.398;2024-03-02T00:59:14;-6.18;82.85
69715;HTU21D;56981;53.532;49.398;2024-03-02T01:01:40;-6.19;83.12
69715;HTU21D;56981;53.532;49.398;2024-03-02T01:04:06;-6.23;83.39
69715;HTU21D;56981;53.532;49.398;2024-03-02T01:06:32;-6.24;83.52
69715;HTU21D;56981;53.532;49.398;2024-03-02T01:08:58;-6.28;83.26
69715;HTU21D;56981;53.532;49.398;2024-03-02T01:11:24;-6.27;83.28
69715;HTU21D;56981;53.532;49.398;2024-03-02T01:13:51;-6.31;83.28
69715;HTU21D;56981;53.532;49.398;2024-03-02T01:16:18;-6.36;83.41
69715;HTU21D;56981;53.532;49.398;2024-03-02T01:18:44;-6.41;83.88
69715;HTU21D;56981;53.532;49.398;2024-03-02T01:21:10;-6.42;84.25
69715;HTU21D;56981;53.532;49.398;2024-03-02T01:23:36;-6.46;84.41
69715;HTU21D;56981;53.532;49.398;2024-03-02T01:26:02;-6.44;84.77
69715;HTU21D;56981;53.532;49.398;2024-03-02T01:28:33;-6.41;84.65
69715;HTU21D;56981;53.532;49.398;2024-03-02T01:30:59;-6.43;84.77
69715;HTU21D;56981;53.532;49.398;2024-03-02T01:33:25;-6.43;84.87
69715;HTU21D;56981;53.532;49.398;2024-03-02T01:35:51;-6.44;84.89
69715;HTU21D;56981;53.532;49.398;2024-03-02T01:38:17;-6.46;85.03
69715;HTU21D;56981;53.532;49.398;2024-03-02T01:40:43;-6.46;85.51
69715;HTU21D;56981;53.532;49.398;2024-03-02T01:43:11;-6.48;85.55
69715;HTU21D;56981;53.532;49.398;2024-03-02T01:45:38;-6.46;85.64
69715;HTU21D;56981;53.532;49.398;2024-03-02T01:48:05;-6.44;85.80
69715;HTU21D;56981;53.532;49.398;2024-03-02T01:50:33;-6.39;85.70
69715;HTU21D;56981;53.532;49.398;2024-03-02T01:53:00;-6.36;85.66
69715;HTU21D;56981;53.532;49.398;2024-03-02T01:55:26;-6.36;85.70
69715;HTU21D;56981;53.532;49.398;2024-03-02T01:57:55;-6.36;85.52
69715;HTU21D;56981;53.532;49.398;2024-03-02T02:00:27;-6.37;85.71
69715;HTU21D;56981;53.532;49.398;2024-03-02T02:02:54;-6.38;85.77
69715;HTU21D;56981;53.532;49.398;2024-03-02T02:05:20;-6.36;85.79
69715;HTU21D;56981;53.532;49.398;2024-03-02T02:07:46;-6.33;85.60
69715;HTU21D;56981;53.532;49.398;2024-03-02T02:10:12;-6.31;85.54
69715;HTU21D;56981;53.532;49.398;2024-03-02T02:12:39;-6.27;85.30
69715;HTU21D;56981;53.532;49.398;2024-03-02T02:15:28;-6.24;84.96
69715;HTU21D;56981;53.532;49.398;2024-03-02T02:17:55;-6.24;85.06
69715;HTU21D;56981;53.532;49.398;2024-03-02T02:20:22;-6.22;84.80
69715;HTU21D;56981;53.532;49.398;2024-03-02T02:25:20;-6.27;84.81
69715;HTU21D;56981;53.532;49.398;2024-03-02T02:27:46;-6.29;84.74
69715;HTU21D;56981;53.532;49.398;2024-03-02T02:30:13;-6.29;84.93
69715;HTU21D;56981;53.532;49.398;2024-03-02T02:32:39;-6.33;84.65
69715;HTU21D;56981;53.532;49.398;2024-03-02T02:35:05;-6.38;84.97
69715;HTU21D;56981;53.532;49.398;2024-03-02T02:37:31;-6.37;85.24
69715;HTU21D;56981;53.532;49.398;2024-03-02T02:39:57;-6.38;85.10
69715;HTU21D;56981;53.532;49.398;2024-03-02T02:42:23;-6.41;85.07
69715;HTU21D;56981;53.532;49.398;2024-03-02T02:44:49;-6.45;85.16
69715;HTU21D;56981;53.532;49.398;2024-03-02T02:47:15;-6.49;85.16
69715;HTU21D;56981;53.532;49.398;2024-03-02T02:49:41;-6.48;85.09
69715;HTU21D;56981;53.532;49.398;2024-03-02T02:52:08;-6.50;84.99
69715;HTU21D;56981;53.532;49.398;2024-03-02T02:54:36;-6.58;85.03
69715;HTU21D;56981;53.532;49.398;2024-03-02T02:57:03;-6.61;85.12
69715;HTU21D;56981;53.532;49.398;2024-03-02T02:59:29;-6.64;85.16
69715;HTU21D;56981;53.532;49.398;2024-03-02T03:01:55;-6.66;85.20
69715;HTU21D;56981;53.532;49.398;2024-03-02T03:04:21;-6.73;84.88
69715;HTU21D;56981;53.532;49.398;2024-03-02T03:06:47;-6.79;84.93
69715;HTU21D;56981;53.532;49.398;2024-03-02T03:09:13;-6.82;85.09
69715;HTU21D;56981;53.532;49.398;2024-03-02T03:11:39;-6.83;85.18
69715;HTU21D;56981;53.532;49.398;2024-03-02T03:14:05;-6.86;85.06
69715;HTU21D;56981;53.532;49.398;2024-03-02T03:16:31;-6.88;85.04
69715;HTU21D;56981;53.532;49.398;2024-03-02T03:18:57;-6.91;85.06
69715;HTU21D;56981;53.532;49.398;2024-03-02T03:21:23;-6.90;84.94
69715;HTU21D;56981;53.532;49.398;2024-03-02T03:23:49;-6.92;85.00
69715;HTU21D;56981;53.532;49.398;2024-03-02T03:26:15;-6.92;84.80
69715;HTU21D;56981;53.532;49.398;2024-03-02T03:28:41;-6.93;84.79
69715;HTU21D;56981;53.532;49.398;2024-03-02T03:31:10;-6.89;84.71
69715;HTU21D;56981;53.532;49.398;2024-03-02T03:33:36;-6.87;84.46
69715;HTU21D;56981;53.532;49.398;2024-03-02T03:36:02;-6.85;84.10
69715;HTU21D;56981;53.532;49.398;2024-03-02T03:38:29;-6.86;84.11
69715;HTU21D;56981;53.532;49.398;2024-03-02T03:40:56;-6.83;83.81
69715;HTU21D;56981;53.532;49.398;2024-03-02T03:43:22;-6.81;83.69
69715;HTU21D;56981;53.532;49.398;2024-03-02T03:45:48;-6.79;83.27
69715;HTU21D;56981;53.532;49.398;2024-03-02T03:48:14;-6.76;83.20
69715;HTU21D;56981;53.532;49.398;2024-03-02T03:50:41;-6.70;82.90
69715;HTU21D;56981;53.532;49.398;2024-03-02T03:53:07;-6.63;82.43
69715;HTU21D;56981;53.532;49.398;2024-03-02T03:55:33;-6.56;82.33
69715;HTU21D;56981;53.532;49.398;2024-03-02T03:57:59;-6.43;81.62
69715;HTU21D;56981;53.532;49.398;2024-03-02T04:00:26;-6.21;81.15
69715;HTU21D;56981;53.532;49.398;2024-03-02T04:02:52;-6.16;79.82
69715;HTU21D;56981;53.532;49.398;2024-03-02T04:05:18;-6.00;79.36
69715;HTU21D;56981;53.532;49.398;2024-03-02T04:07:44;-5.90;78.45
69715;HTU21D;56981;53.532;49.398;2024-03-02T04:10:10;-5.71;77.31
69715;HTU21D;56981;53.532;49.398;2024-03-02T04:12:36;-5.70;76.64
69715;HTU21D;56981;53.532;49.398;2024-03-02T04:15:04;-5.65;76.41
69715;HTU21D;56981;53.532;49.398;2024-03-02T04:17:32;-5.43;76.04
69715;HTU21D;56981;53.532;49.398;2024-03-02T04:19:59;-5.11;75.13
69715;HTU21D;56981;53.532;49.398;2024-03-02T04:22:27;-4.93;75.13
69715;HTU21D;56981;53.532;49.398;2024-03-02T04:24:53;-4.79;74.25
69715;HTU21D;56981;53.532;49.398;2024-03-02T04:27:20;-4.50;72.63
69715;HTU21D;56981;53.532;49.398;2024-03-02T04:29:46;-4.56;72.14
69715;HTU21D;56981;53.532;49.398;2024-03-02T04:32:12;-4.57;73.15
69715;HTU21D;56981;53.532;49.398;2024-03-02T04:34:38;-4.32;72.35
69715;HTU21D;56981;53.532;49.398;2024-03-02T04:37:04;-4.26;71.93
69715;HTU21D;56981;53.532;49.398;2024-03-02T04:39:30;-4.09;71.44
69715;HTU21D;56981;53.532;49.398;2024-03-02T04:41:56;-3.87;70.61
69715;HTU21D;56981;53.532;49.398;2024-03-02T04:44:23;-3.61;69.19
69715;HTU21D;56981;53.532;49.398;2024-03-02T04:46:50;-3.21;68.55
69715;HTU21D;56981;53.532;49.398;2024-03-02T04:49:16;-2.89;66.65
69715;HTU21D;56981;53.532;49.398;2024-03-02T04:51:42;-2.71;65.99
69715;HTU21D;56981;53.532;49.398;2024-03-02T04:54:08;-2.24;65.43
69715;HTU21D;56981;53.532;49.398;2024-03-02T04:56:34;-1.82;63.16
69715;HTU21D;56981;53.532;49.398;2024-03-02T04:59:10;-1.82;62.55
69715;HTU21D;56981;53.532;49.398;2024-03-02T05:01:36;-1.65;61.97
69715;HTU21D;56981;53.532;49.398;2024-03-02T05:04:03;-1.35;60.98
69715;HTU21D;56981;53.532;49.398;2024-03-02T05:06:29;-0.84;59.69
69715;HTU21D;56981;53.532;49.398;2024-03-02T05:08:55;-0.31;58.36
69715;HTU21D;56981;53.532;49.398;2024-03-02T05:11:22;0.03;57.57
69715;HTU21D;56981;53.532;49.398;2024-03-02T05:14:03;0.47;56.52
69715;HTU21D;56981;53.532;49.398;2024-03-02T05:16:39;0.81;56.26
69715;HTU21D;56981;53.532;49.398;2024-03-02T05:19:08;1.39;53.98
69715;HTU21D;56981;53.532;49.398;2024-03-02T05:21:38;1.75;53.16
69715;HTU21D;56981;53.532;49.398;2024-03-02T05:24:05;1.65;52.82
69715;HTU21D;56981;53.532;49.398;2024-03-02T05:26:31;1.57;53.36
69715;HTU21D;56981;53.532;49.398;2024-03-02T05:28:57;1.70;53.20
69715;HTU21D;56981;53.532;49.398;2024-03-02T05:31:24;2.01;52.94
69715;HTU21D;56981;53.532;49.398;2024-03-02T05:33:51;2.39;51.39
69715;HTU21D;56981;53.532;49.398;2024-03-02T05:36:18;2.60;51.59
69715;HTU21D;56981;53.532;49.398;2024-03-02T05:38:44;3.05;50.43
69715;HTU21D;56981;53.532;49.398;2024-03-02T05:41:10;3.27;49.95
69715;HTU21D;56981;53.532;49.398;2024-03-02T05:43:37;3.34;49.33
69715;HTU21D;56981;53.532;49.398;2024-03-02T05:46:03;3.31;49.53
69715;HTU21D;56981;53.532;49.398;2024-03-02T05:48:30;3.61;48.90
69715;HTU21D;56981;53.532;49.398;2024-03-02T05:50:56;3.91;48.22
69715;HTU21D;56981;53.532;49.398;2024-03-02T05:53:22;3.92;47.71
69715;HTU21D;56981;53.532;49.398;2024-03-02T05:55:48;4.10;48.34
69715;HTU21D;56981;53.532;49.398;2024-03-02T05:58:19;4.42;46.80
69715;HTU21D;56981;53.532;49.398;2024-03-02T06:01:23;4.49;46.55
69715;HTU21D;56981;53.532;49.398;2024-03-02T06:03:55;4.63;47.06
69715;HTU21D;56981;53.532;49.398;2024-03-02T06:06:22;4.84;46.73
69715;HTU21D;56981;53.532;49.398;2024-03-02T06:08:48;4.81;46.00
69715;HTU21D;56981;53.532;49.398;2024-03-02T06:11:14;4.76;46.47
69715;HTU21D;56981;53.532;49.398;2024-03-02T06:13:43;4.95;46.38
69715;HTU21D;56981;53.532;49.398;2024-03-02T06:16:09;5.38;45.60
69715;HTU21D;56981;53.532;49.398;2024-03-02T06:18:35;5.84;44.38
69715;HTU21D;56981;53.532;49.398;2024-03-02T06:21:04;6.21;43.49
69715;HTU21D;56981;53.532;49.398;2024-03-02T06:23:31;6.30;43.29
69715;HTU21D;56981;53.532;49.398;2024-03-02T06:25:57;6.51;42.97
69715;HTU21D;56981;53.532;49.398;2024-03-02T06:28:23;6.76;41.94
69715;HTU21D;56981;53.532;49.398;2024-03-02T06:30:49;7.04;41.09
69715;HTU21D;56981;53.532;49.398;2024-03-02T06:33:16;6.60;42.55
69715;HTU21D;56981;53.532;49.398;2024-03-02T06:35:42;6.55;42.61
69715;HTU21D;56981;53.532;49.398;2024-03-02T06:38:08;6.60;42.43
69715;HTU21D;56981;53.532;49.398;2024-03-02T06:40:34;6.41;42.61
69715;HTU21D;56981;53.532;49.398;2024-03-02T06:43:00;6.40;42.86
69715;HTU21D;56981;53.532;49.398;2024-03-02T06:45:27;6.51;43.16
69715;HTU21D;56981;53.532;49.398;2024-03-02T06:47:53;6.85;42.13
69715;HTU21D;56981;53.532;49.398;2024-03-02T06:50:20;6.78;42.52
69715;HTU21D;56981;53.532;49.398;2024-03-02T06:52:46;6.48;42.65
69715;HTU21D;56981;53.532;49.398;2024-03-02T06:55:12;6.58;42.64
69715;HTU21D;56981;53.532;49.398;2024-03-02T06:57:38;6.36;42.87
69715;HTU21D;56981;53.532;49.398;2024-03-02T07:00:04;6.50;42.57
69715;HTU21D;56981;53.532;49.398;2024-03-02T07:02:32;6.63;43.28
69715;HTU21D;56981;53.532;49.398;2024-03-02T07:04:58;6.98;42.68
69715;HTU21D;56981;53.532;49.398;2024-03-02T07:07:24;6.95;42.63
69715;HTU21D;56981;53.532;49.398;2024-03-02T07:09:50;6.74;42.39
69715;HTU21D;56981;53.532;49.398;2024-03-02T07:12:16;6.76;43.63
69715;HTU21D;56981;53.532;49.398;2024-03-02T07:14:45;7.16;42.19
69715;HTU21D;56981;53.532;49.398;2024-03-02T07:17:32;7.01;42.31
69715;HTU21D;56981;53.532;49.398;2024-03-02T07:19:59;6.88;43.77
69715;HTU21D;56981;53.532;49.398;2024-03-02T07:22:25;7.16;41.82
69715;HTU21D;56981;53.532;49.398;2024-03-02T07:24:51;7.53;42.52
69715;HTU21D;56981;53.532;49.398;2024-03-02T07:27:17;7.67;40.94
69715;HTU21D;56981;53.532;49.398;2024-03-02T07:29:44;7.62;41.81
69715;HTU21D;56981;53.532;49.398;2024-03-02T07:32:10;7.79;41.48
69715;HTU21D;56981;53.532;49.398;2024-03-02T07:34:37;7.84;41.39
69715;HTU21D;56981;53.532;49.398;2024-03-02T07:37:06;7.57;41.50
69715;HTU21D;56981;53.532;49.398;2024-03-02T07:39:32;7.46;42.71
69715;HTU21D;56981;53.532;49.398;2024-03-02T07:41:59;7.22;42.81
69715;HTU21D;56981;53.532;49.398;2024-03-02T07:44:26;7.40;43.07
69715;HTU21D;56981;53.532;49.398;2024-03-02T07:46:53;7.37;42.15
69715;HTU21D;56981;53.532;49.398;2024-03-02T07:49:22;7.57;43.10
69715;HTU21D;56981;53.532;49.398;2024-03-02T07:51:51;7.56;43.71
69715;HTU21D;56981;53.532;49.398;2024-03-02T07:54:17;7.40;43.42
69715;HTU21D;56981;53.532;49.398;2024-03-02T07:56:45;7.16;44.66
69715;HTU21D;56981;53.532;49.398;2024-03-02T07:59:11;7.04;43.54
69715;HTU21D;56981;53.532;49.398;2024-03-02T08:01:40;6.97;44.50
69715;HTU21D;56981;53.532;49.398;2024-03-02T08:04:06;6.86;44.43
69715;HTU21D;56981;53.532;49.398;2024-03-02T08:06:32;6.73;44.95
69715;HTU21D;56981;53.532;49.398;2024-03-02T08:09:00;6.85;44.39
69715;HTU21D;56981;53.532;49.398;2024-03-02T08:11:27;7.44;42.87
69715;HTU21D;56981;53.532;49.398;2024-03-02T08:13:53;7.46;44.32
69715;HTU21D;56981;53.532;49.398;2024-03-02T08:16:22;7.27;43.65
69715;HTU21D;56981;53.532;49.398;2024-03-02T08:18:49;7.40;43.67
69715;HTU21D;56981;53.532;49.398;2024-03-02T08:21:16;7.40;42.62
69715;HTU21D;56981;53.532;49.398;2024-03-02T08:23:43;7.67;43.39
69715;HTU21D;56981;53.532;49.398;2024-03-02T08:26:10;7.90;41.81
69715;HTU21D;56981;53.532;49.398;2024-03-02T08:28:37;7.75;42.28
69715;HTU21D;56981;53.532;49.398;2024-03-02T08:31:03;7.67;42.68
69715;HTU21D;56981;53.532;49.398;2024-03-02T08:33:30;8.05;42.53
69715;HTU21D;56981;53.532;49.398;2024-03-02T08:35:56;7.81;42.79
69715;HTU21D;56981;53.532;49.398;2024-03-02T08:38:22;8.06;42.42
69715;HTU21D;56981;53.532;49.398;2024-03-02T08:40:49;8.21;42.32
69715;HTU21D;56981;53.532;49.398;2024-03-02T08:43:16;8.21;42.37
69715;HTU21D;56981;53.532;49.398;2024-03-02T08:45:42;8.36;41.47
69715;HTU21D;56981;53.532;49.398;2024-03-02T08:48:09;8.55;41.39
69715;HTU21D;56981;53.532;49.398;2024-03-02T08:50:36;8.82;40.20
69715;HTU21D;56981;53.532;49.398;2024-03-02T08:53:03;8.67;40.17
69715;HTU21D;56981;53.532;49.398;2024-03-02T08:55:29;8.47;42.77
69715;HTU21D;56981;53.532;49.398;2024-03-02T08:57:56;8.24;42.46
69715;HTU21D;56981;53.532;49.398;2024-03-02T09:00:23;8.01;46.16
69715;HTU21D;56981;53.532;49.398;2024-03-02T09:02:49;7.31;44.32
69715;HTU21D;56981;53.532;49.398;2024-03-02T09:05:15;7.52;44.70
69715;HTU21D;56981;53.532;49.398;2024-03-02T09:07:41;7.54;43.35
69715;HTU21D;56981;53.532;49.398;2024-03-02T09:10:08;7.72;44.34
69715;HTU21D;56981;53.532;49.398;2024-03-02T09:12:35;7.34;45.64
69715;HTU21D;56981;53.532;49.398;2024-03-02T09:15:04;7.29;46.94
69715;HTU21D;56981;53.532;49.398;2024-03-02T09:17:31;6.74;46.98
69715;HTU21D;56981;53.532;49.398;2024-03-02T09:19:57;6.41;47.65
69715;HTU21D;56981;53.532;49.398;2024-03-02T09:22:23;6.28;48.78
69715;HTU21D;56981;53.532;49.398;2024-03-02T09:24:50;6.15;50.85
69715;HTU21D;56981;53.532;49.398;2024-03-02T09:27:16;6.19;49.94
69715;HTU21D;56981;53.532;49.398;2024-03-02T09:29:42;5.97;50.64
69715;HTU21D;56981;53.532;49.398;2024-03-02T09:32:12;5.74;51.47
69715;HTU21D;56981;53.532;49.398;2024-03-02T09:34:39;5.64;51.98
69715;HTU21D;56981;53.532;49.398;2024-03-02T09:37:05;5.63;52.45
69715;HTU21D;56981;53.532;49.398;2024-03-02T09:39:31;5.52;51.11
69715;HTU21D;56981;53.532;49.398;2024-03-02T09:41:59;5.52;51.22
69715;HTU21D;56981;53.532;49.398;2024-03-02T09:44:29;5.52;52.60
69715;HTU21D;56981;53.532;49.398;2024-03-02T09:46:55;5.60;51.99
69715;HTU21D;56981;53.532;49.398;2024-03-02T09:49:21;5.64;52.01
69715;HTU21D;56981;53.532;49.398;2024-03-02T09:51:49;5.60;50.26
69715;HTU21D;56981;53.532;49.398;2024-03-02T09:54:18;5.53;50.74
69715;HTU21D;56981;53.532;49.398;2024-03-02T09:56:45;5.56;50.89
69715;HTU21D;56981;53.532;49.398;2024-03-02T09:59:11;5.38;50.91
69715;HTU21D;56981;53.532;49.398;2024-03-02T10:01:39;5.09;52.17
69715;HTU21D;56981;53.532;49.398;2024-03-02T10:04:05;4.92;52.87
69715;HTU21D;56981;53.532;49.398;2024-03-02T10:06:34;5.08;53.41
69715;HTU21D;56981;53.532;49.398;2024-03-02T10:09:00;5.07;52.70
69715;HTU21D;56981;53.532;49.398;2024-03-02T10:11:34;5.26;52.20
69715;HTU21D;56981;53.532;49.398;2024-03-02T10:14:12;5.30;50.60
69715;HTU21D;56981;53.532;49.398;2024-03-02T10:16:43;5.34;51.30
69715;HTU21D;56981;53.532;49.398;2024-03-02T10:19:23;5.19;51.91
69715;HTU21D;56981;53.532;49.398;2024-03-02T10:21:54;5.19;49.58
69715;HTU21D;56981;53.532;49.398;2024-03-02T10:24:22;5.28;52.34
69715;HTU21D;56981;53.532;49.398;2024-03-02T10:26:48;5.27;52.32
69715;HTU21D;56981;53.532;49.398;2024-03-02T10:29:15;5.34;51.82
69715;HTU21D;56981;53.532;49.398;2024-03-02T10:31:44;5.32;52.04
69715;HTU21D;56981;53.532;49.398;2024-03-02T10:34:12;5.31;52.01
69715;HTU21D;56981;53.532;49.398;2024-03-02T10:36:43;5.28;51.81
69715;HTU21D;56981;53.532;49.398;2024-03-02T10:39:10;5.33;52.21
69715;HTU21D;56981;53.532;49.398;2024-03-02T10:41:38;5.24;52.56
69715;HTU21D;56981;53.532;49.398;2024-03-02T10:44:09;5.15;52.64
69715;HTU21D;56981;53.532;49.398;2024-03-02T10:46:37;5.09;53.63
69715;HTU21D;56981;53.532;49.398;2024-03-02T10:49:05;4.98;54.01
69715;HTU21D;56981;53.532;49.398;2024-03-02T10:51:32;4.89;53.64
69715;HTU21D;56981;53.532;49.398;2024-03-02T10:53:59;4.96;54.05
69715;HTU21D;56981;53.532;49.398;2024-03-02T10:56:33;5.02;53.04
69715;HTU21D;56981;53.532;49.398;2024-03-02T11:01:50;4.93;53.39
69715;HTU21D;56981;53.532;49.398;2024-03-02T11:04:18;4.86;53.92
69715;HTU21D;56981;53.532;49.398;2024-03-02T11:06:51;4.76;53.23
69715;HTU21D;56981;53.532;49.398;2024-03-02T11:09:26;4.71;53.88
69715;HTU21D;56981;53.532;49.398;2024-03-02T11:12:03;4.68;54.37
69715;HTU21D;56981;53.532;49.398;2024-03-02T11:14:31;4.65;55.19
69715;HTU21D;56981;53.532;49.398;2024-03-02T11:17:00;4.62;55.26
69715;HTU21D;56981;53.532;49.398;2024-03-02T11:19:28;4.67;54.86
69715;HTU21D;56981;53.532;49.398;2024-03-02T11:21:54;4.63;54.42
69715;HTU21D;56981;53.532;49.398;2024-03-02T11:26:50;4.67;54.66
69715;HTU21D;56981;53.532;49.398;2024-03-02T11:32:06;4.75;55.45
69715;HTU21D;56981;53.532;49.398;2024-03-02T11:34:41;4.87;54.61
69715;HTU21D;56981;53.532;49.398;2024-03-02T11:37:11;4.93;53.69
69715;HTU21D;56981;53.532;49.398;2024-03-02T11:39:43;4.94;54.25
69715;HTU21D;56981;53.532;49.398;2024-03-02T11:42:11;4.73;54.40
69715;HTU21D;56981;53.532;49.398;2024-03-02T11:44:39;4.69;55.94
69715;HTU21D;56981;53.532;49.398;2024-03-02T11:47:10;4.69;55.67
69715;HTU21D;56981;53.532;49.398;2024-03-02T11:49:37;4.69;56.35
69715;HTU21D;56981;53.532;49.398;2024-03-02T11:52:10;4.64;56.31
69715;HTU21D;56981;53.532;49.398;2024-03-02T11:54:42;4.51;56.05
69715;HTU21D;56981;53.532;49.398;2024-03-02T11:57:21;4.51;56.72
69715;HTU21D;56981;53.532;49.398;2024-03-02T11:59:52;4.50;56.05
69715;HTU21D;56981;53.532;49.398;2024-03-02T12:02:20;4.45;55.03
69715;HTU21D;56981;53.532;49.398;2024-03-02T12:04:48;4.49;54.75
69715;HTU21D;56981;53.532;49.398;2024-03-02T12:07:22;4.52;55.13
69715;HTU21D;56981;53.532;49.398;2024-03-02T12:10:01;4.63;54.11
69715;HTU21D;56981;53.532;49.398;2024-03-02T12:12:28;4.75;53.68
69715;HTU21D;56981;53.532;49.398;2024-03-02T12:14:55;4.83;51.96
69715;HTU21D;56981;53.532;49.398;2024-03-02T12:17:26;4.82;51.91
69715;HTU21D;56981;53.532;49.398;2024-03-02T12:19:52;4.81;53.39
69715;HTU21D;56981;53.532;49.398;2024-03-02T12:22:18;4.73;53.68
69715;HTU21D;56981;53.532;49.398;2024-03-02T12:24:45;4.74;55.75
69715;HTU21D;56981;53.532;49.398;2024-03-02T12:27:12;4.83;53.29
69715;HTU21D;56981;53.532;49.398;2024-03-02T12:29:40;4.86;54.31
69715;HTU21D;56981;53.532;49.398;2024-03-02T12:32:07;4.84;53.68
69715;HTU21D;56981;53.532;49.398;2024-03-02T12:34:38;4.80;51.49
69715;HTU21D;56981;53.532;49.398;2024-03-02T12:37:04;4.73;54.13
69715;HTU21D;56981;53.532;49.398;2024-03-02T12:39:30;0.00;53.08
69715;HTU21D;56981;53.532;49.398;2024-03-02T12:41:59;4.68;53.14
69715;HTU21D;56981;53.532;49.398;2024-03-02T12:44:25;4.69;52.40
69715;HTU21D;56981;53.532;49.398;2024-03-02T12:46:51;4.73;52.82
69715;HTU21D;56981;53.532;49.398;2024-03-02T12:49:22;4.66;51.58
69715;HTU21D;56981;53.532;49.398;2024-03-02T12:51:48;4.63;52.98
69715;HTU21D;56981;53.532;49.398;2024-03-02T12:54:18;4.58;51.84
69715;HTU21D;56981;53.532;49.398;2024-03-02T12:56:44;4.56;52.27
69715;HTU21D;56981;53.532;49.398;2024-03-02T12:59:23;4.51;52.56
69715;HTU21D;56981;53.532;49.398;2024-03-02T13:01:55;4.42;53.12
69715;HTU21D;56981;53.532;49.398;2024-03-02T13:04:28;4.34;54.26
69715;HTU21D;56981;53.532;49.398;2024-03-02T13:06:58;4.28;54.16
69715;HTU21D;56981;53.532;49.398;2024-03-02T13:09:24;4.24;54.12
69715;HTU21D;56981;53.532;49.398;2024-03-02T13:11:51;4.02;53.08
69715;HTU21D;56981;53.532;49.398;2024-03-02T13:14:17;3.92;53.97
69715;HTU21D;56981;53.532;49.398;2024-03-02T13:16:45;3.91;53.84
69715;HTU21D;56981;53.532;49.398;2024-03-02T13:19:15;3.82;55.19
69715;HTU21D;56981;53.532;49.398;2024-03-02T13:21:41;3.77;55.68
69715;HTU21D;56981;53.532;49.398;2024-03-02T13:24:08;3.70;55.04
69715;HTU21D;56981;53.532;49.398;2024-03-02T13:26:34;3.61;55.28
69715;HTU21D;56981;53.532;49.398;2024-03-02T13:29:00;3.54;56.39
69715;HTU21D;56981;53.532;49.398;2024-03-02T13:31:35;3.46;54.77
69715;HTU21D;56981;53.532;49.398;2024-03-02T13:34:01;3.41;55.64
69715;HTU21D;56981;53.532;49.398;2024-03-02T13:36:28;3.34;56.93
69715;HTU21D;56981;53.532;49.398;2024-03-02T13:38:54;3.26;56.64
69715;HTU21D;56981;53.532;49.398;2024-03-02T13:41:21;3.09;57.08
69715;HTU21D;56981;53.532;49.398;2024-03-02T13:43:47;3.04;56.36
69715;HTU21D;56981;53.532;49.398;2024-03-02T13:46:19;2.94;56.40
69715;HTU21D;56981;53.532;49.398;2024-03-02T13:48:46;2.90;56.25
69715;HTU21D;56981;53.532;49.398;2024-03-02T13:51:12;2.75;55.56
69715;HTU21D;56981;53.532;49.398;2024-03-02T13:53:40;2.61;56.15
69715;HTU21D;56981;53.532;49.398;2024-03-02T13:56:07;2.41;55.78
69715;HTU21D;56981;53.532;49.398;2024-03-02T13:58:37;2.24;56.51
69715;HTU21D;56981;53.532;49.398;2024-03-02T14:01:06;2.12;56.39
69715;HTU21D;56981;53.532;49.398;2024-03-02T14:03:32;2.01;56.54
69715;HTU21D;56981;53.532;49.398;2024-03-02T14:05:59;1.96;56.92
69715;HTU21D;56981;53.532;49.398;2024-03-02T14:09:07;1.90;57.22
69715;HTU21D;56981;53.532;49.398;2024-03-02T14:11:50;1.83;58.74
69715;HTU21D;56981;53.532;49.398;2024-03-02T14:14:16;1.76;59.02
69715;HTU21D;56981;53.532;49.398;2024-03-02T14:16:43;1.65;59.09
69715;HTU21D;56981;53.532;49.398;2024-03-02T14:19:11;1.52;58.39
69715;HTU21D;56981;53.532;49.398;2024-03-02T14:21:39;1.38;58.60
69715;HTU21D;56981;53.532;49.398;2024-03-02T14:24:14;1.20;60.01
69715;HTU21D;56981;53.532;49.398;2024-03-02T14:26:43;1.08;61.96
69715;HTU21D;56981;53.532;49.398;2024-03-02T14:29:11;0.91;61.61
69715;HTU21D;56981;53.532;49.398;2024-03-02T14:31:44;0.79;62.86
69715;HTU21D;56981;53.532;49.398;2024-03-02T14:34:17;0.74;63.65
69715;HTU21D;56981;53.532;49.398;2024-03-02T14:36:43;0.67;62.89
69715;HTU21D;56981;53.532;49.398;2024-03-02T14:39:12;0.62;64.85
69715;HTU21D;56981;53.532;49.398;2024-03-02T14:41:39;0.49;66.01
69715;HTU21D;56981;53.532;49.398;2024-03-02T14:44:08;0.46;67.97
69715;HTU21D;56981;53.532;49.398;2024-03-02T14:46:38;0.40;65.91
69715;HTU21D;56981;53.532;49.398;2024-03-02T14:49:05;0.37;64.66
69715;HTU21D;56981;53.532;49.398;2024-03-02T14:51:32;0.31;64.55
69715;HTU21D;56981;53.532;49.398;2024-03-02T14:53:58;0.25;66.94
69715;HTU21D;56981;53.532;49.398;2024-03-02T14:56:25;0.17;65.36
69715;HTU21D;56981;53.532;49.398;2024-03-02T14:58:52;0.03;66.27
69715;HTU21D;56981;53.532;49.398;2024-03-02T15:01:20;-0.11;66.07
69715;HTU21D;56981;53.532;49.398;2024-03-02T15:03:53;-0.15;66.81
69715;HTU21D;56981;53.532;49.398;2024-03-02T15:06:19;-0.16;66.78
69715;HTU21D;56981;53.532;49.398;2024-03-02T15:08:46;-0.21;68.06
69715;HTU21D;56981;53.532;49.398;2024-03-02T15:11:17;-0.30;67.36
69715;HTU21D;56981;53.532;49.398;2024-03-02T15:13:44;-0.38;69.05
69715;HTU21D;56981;53.532;49.398;2024-03-02T15:16:11;-0.44;69.55
69715;HTU21D;56981;53.532;49.398;2024-03-02T15:18:38;-0.47;69.07
69715;HTU21D;56981;53.532;49.398;2024-03-02T15:21:10;-0.54;69.38
69715;HTU21D;56981;53.532;49.398;2024-03-02T15:23:37;-0.68;68.22
69715;HTU21D;56981;53.532;49.398;2024-03-02T15:26:04;-0.77;67.92
69715;HTU21D;56981;53.532;49.398;2024-03-02T15:28:34;-0.87;67.23
69715;HTU21D;56981;53.532;49.398;2024-03-02T15:31:05;-0.96;66.16